Safety First — WDI4825 — position and weather

sailwx.info

Track history (hours):
 
Tides and Currents Weather Stations Pressure Air Temp Water Temp Dewpoint Dewpoint Depression Visibility Wind Speed Wind Dir Waves Ship Positions

Safety First

Owner: American Commercial Barge Line LLC, Jeffersonville, IN. More information available from US FCC via Universal Licensing System and Coast Guard Vessel Documentation Center.

Last reported at 2017-Dec-28 23:16 UTC. Time now 2018-Feb-24 04:35 UTC.
Position N 29°33' W 090°25'.
Warning: this ship's position is 57 days out of date.

Length 23 m; draft 3 m.

Type: Towing. MMSI: 367702400.

Date/timePositionNaut miles runAvg speedWind from/ knotsBaromVisibWave heightAir tempDewpointWater temp
2017-Dec-28 23:16N 29°33' W 090°25'3 7.2
2017-Dec-28 22:53N 29°33' W 090°28'3 6.9
2017-Dec-28 22:30N 29°34' W 090°31'3 6.6
2017-Dec-28 22:00N 29°34' W 090°34'3 6.0
2017-Dec-28 21:30N 29°35' W 090°38'3 5.8
2017-Dec-28 21:00N 29°36' W 090°41'2 3.7
2017-Dec-28 20:30N 29°35' W 090°43'2 4.9
2017-Dec-28 20:00N 29°34' W 090°45'3 6.3
2017-Dec-28 19:29N 29°32' W 090°48'4 7.1
2017-Dec-28 18:52N 29°32' W 090°53'58 5.7
2017-Dec-28 08:45N 29°51' W 091°56'2 6.0
2017-Dec-28 08:29N 29°50' W 091°58'3 6.9
2017-Dec-28 08:00N 29°49' W 092°01'4 7.2
2017-Dec-28 07:31N 29°48' W 092°05'4 7.0
2017-Dec-28 07:01N 29°47' W 092°09'3 6.4
2017-Dec-28 06:30N 29°47' W 092°13'3 5.5
2017-Dec-28 06:00N 29°48' W 092°16'3 6.5
2017-Dec-28 05:30N 29°50' W 092°19'40 6.3
2017-Dec-27 23:04N 29°56' W 093°05'2 6.5
2017-Dec-27 22:47N 29°56' W 093°07'2 5.9
2017-Dec-27 22:30N 29°56' W 093°09'3 5.0
2017-Dec-27 21:59N 29°58' W 093°11'3 5.7
2017-Dec-27 21:30N 29°60' W 093°13'3 5.6
2017-Dec-27 21:00N 30°02' W 093°15'3 6.0
2017-Dec-27 20:31N 30°05' W 093°17'2 3.2
2017-Dec-27 20:00N 30°06' W 093°18'1 2.2
2017-Dec-27 19:31N 30°06' W 093°19'3 5.9
2017-Dec-27 19:00N 30°04' W 093°22'2 4.3
2017-Dec-27 18:30N 30°04' W 093°24'3 6.0
2017-Dec-27 18:00N 30°04' W 093°28'3 6.3
2017-Dec-27 17:30N 30°04' W 093°32'  
2017-Dec-25 00:43N 30°04' W 093°40'1 5.1
2017-Dec-25 00:28N 30°04' W 093°39'3 5.3
2017-Dec-24 23:51N 30°04' W 093°35'2 4.9
2017-Dec-24 23:30N 30°04' W 093°33'2 4.7
2017-Dec-24 23:00N 30°04' W 093°30'2 4.4
2017-Dec-24 22:30N 30°04' W 093°28'2 4.6
2017-Dec-24 22:00N 30°04' W 093°25'2 4.5
2017-Dec-24 21:30N 30°04' W 093°22'2 4.0
2017-Dec-24 21:00N 30°05' W 093°20'2 4.6
2017-Dec-24 20:30N 30°06' W 093°18'3 5.5
2017-Dec-24 20:00N 30°04' W 093°16'2 3.9
2017-Dec-24 19:30N 30°02' W 093°15'2 4.1
2017-Dec-24 19:00N 30°00' W 093°14'2 4.8
2017-Dec-24 18:30N 29°59' W 093°12'2 4.8
2017-Dec-24 18:00N 29°57' W 093°10'2 4.4
2017-Dec-24 17:30N 29°56' W 093°08'40 4.5
2017-Dec-24 08:27N 29°51' W 092°22'2 4.2
2017-Dec-24 08:00N 29°50' W 092°20'2 3.6
2017-Dec-24 07:26N 29°49' W 092°18'1 3.0
2017-Dec-24 07:00N 29°49' W 092°16'2 4.8
2017-Dec-24 06:30N 29°48' W 092°14'2 4.2
2017-Dec-24 06:01N 29°47' W 092°12'1 1.0
2017-Dec-24 05:29N 29°47' W 092°11'0 0.1
2017-Dec-24 04:59N 29°47' W 092°11'2 3.6
2017-Dec-24 04:30N 29°47' W 092°09'2 4.5
2017-Dec-24 04:00N 29°48' W 092°06'2 4.3
2017-Dec-24 03:30N 29°48' W 092°04'2 4.3
2017-Dec-24 03:00N 29°49' W 092°02'2 4.6
2017-Dec-24 02:30N 29°50' W 091°59'55 4.0
2017-Dec-23 12:36N 29°36' W 090°58'2 4.8
2017-Dec-23 12:12N 29°34' W 090°57'1 5.1
2017-Dec-23 11:56N 29°34' W 090°55'2 5.1
2017-Dec-23 11:30N 29°32' W 090°53'2 4.9
2017-Dec-23 10:59N 29°32' W 090°50'2 4.8
2017-Dec-23 10:30N 29°32' W 090°47'2 4.0
2017-Dec-23 10:00N 29°33' W 090°45'2 4.3
2017-Dec-23 09:31N 29°34' W 090°43'2 4.3
2017-Dec-23 09:01N 29°36' W 090°43'1 2.9
2017-Dec-23 08:31N 29°36' W 090°41'2 4.6
2017-Dec-23 08:01N 29°35' W 090°39'2 4.3
2017-Dec-23 07:31N 29°35' W 090°36'2 4.4
2017-Dec-23 06:59N 29°34' W 090°34'2 4.4
2017-Dec-23 06:31N 29°34' W 090°31'  
Track history (hours):
 
Tides and Currents Weather Stations Pressure Air Temp Water Temp Dewpoint Dewpoint Depression Visibility Wind Speed Wind Dir Waves Ship Positions

Safety First

Owner: American Commercial Barge Line LLC, Jeffersonville, IN. More information available from US FCC via Universal Licensing System and Coast Guard Vessel Documentation Center.

Last reported at 2017-Dec-28 23:16 UTC. Time now 2018-Feb-24 04:35 UTC.
Position N 29°33' W 090°25'.
Warning: this ship's position is 57 days out of date.

Length 23 m; draft 3 m.

Type: Towing. MMSI: 367702400.

Date/timePositionNaut miles runAvg speedWind from/ knotsBaromVisibWave heightAir tempDewpointWater temp
2017-Dec-28 23:16N 29°33' W 090°25'3 7.2
2017-Dec-28 22:53N 29°33' W 090°28'3 6.9
2017-Dec-28 22:30N 29°34' W 090°31'3 6.6
2017-Dec-28 22:00N 29°34' W 090°34'3 6.0
2017-Dec-28 21:30N 29°35' W 090°38'3 5.8
2017-Dec-28 21:00N 29°36' W 090°41'2 3.7
2017-Dec-28 20:30N 29°35' W 090°43'2 4.9
2017-Dec-28 20:00N 29°34' W 090°45'3 6.3
2017-Dec-28 19:29N 29°32' W 090°48'4 7.1
2017-Dec-28 18:52N 29°32' W 090°53'58 5.7
2017-Dec-28 08:45N 29°51' W 091°56'2 6.0
2017-Dec-28 08:29N 29°50' W 091°58'3 6.9
2017-Dec-28 08:00N 29°49' W 092°01'4 7.2
2017-Dec-28 07:31N 29°48' W 092°05'4 7.0
2017-Dec-28 07:01N 29°47' W 092°09'3 6.4
2017-Dec-28 06:30N 29°47' W 092°13'3 5.5
2017-Dec-28 06:00N 29°48' W 092°16'3 6.5
2017-Dec-28 05:30N 29°50' W 092°19'40 6.3
2017-Dec-27 23:04N 29°56' W 093°05'2 6.5
2017-Dec-27 22:47N 29°56' W 093°07'2 5.9
2017-Dec-27 22:30N 29°56' W 093°09'3 5.0
2017-Dec-27 21:59N 29°58' W 093°11'3 5.7
2017-Dec-27 21:30N 29°60' W 093°13'3 5.6
2017-Dec-27 21:00N 30°02' W 093°15'3 6.0
2017-Dec-27 20:31N 30°05' W 093°17'2 3.2
2017-Dec-27 20:00N 30°06' W 093°18'1 2.2
2017-Dec-27 19:31N 30°06' W 093°19'3 5.9
2017-Dec-27 19:00N 30°04' W 093°22'2 4.3
2017-Dec-27 18:30N 30°04' W 093°24'3 6.0
2017-Dec-27 18:00N 30°04' W 093°28'3 6.3
2017-Dec-27 17:30N 30°04' W 093°32'  
2017-Dec-25 00:43N 30°04' W 093°40'1 5.1
2017-Dec-25 00:28N 30°04' W 093°39'3 5.3
2017-Dec-24 23:51N 30°04' W 093°35'2 4.9
2017-Dec-24 23:30N 30°04' W 093°33'2 4.7
2017-Dec-24 23:00N 30°04' W 093°30'2 4.4
2017-Dec-24 22:30N 30°04' W 093°28'2 4.6
2017-Dec-24 22:00N 30°04' W 093°25'2 4.5
2017-Dec-24 21:30N 30°04' W 093°22'2 4.0
2017-Dec-24 21:00N 30°05' W 093°20'2 4.6
2017-Dec-24 20:30N 30°06' W 093°18'3 5.5
2017-Dec-24 20:00N 30°04' W 093°16'2 3.9
2017-Dec-24 19:30N 30°02' W 093°15'2 4.1
2017-Dec-24 19:00N 30°00' W 093°14'2 4.8
2017-Dec-24 18:30N 29°59' W 093°12'2 4.8
2017-Dec-24 18:00N 29°57' W 093°10'2 4.4
2017-Dec-24 17:30N 29°56' W 093°08'40 4.5
2017-Dec-24 08:27N 29°51' W 092°22'2 4.2
2017-Dec-24 08:00N 29°50' W 092°20'2 3.6
2017-Dec-24 07:26N 29°49' W 092°18'1 3.0
2017-Dec-24 07:00N 29°49' W 092°16'2 4.8
2017-Dec-24 06:30N 29°48' W 092°14'2 4.2
2017-Dec-24 06:01N 29°47' W 092°12'1 1.0
2017-Dec-24 05:29N 29°47' W 092°11'0 0.1
2017-Dec-24 04:59N 29°47' W 092°11'2 3.6
2017-Dec-24 04:30N 29°47' W 092°09'2 4.5
2017-Dec-24 04:00N 29°48' W 092°06'2 4.3
2017-Dec-24 03:30N 29°48' W 092°04'2 4.3
2017-Dec-24 03:00N 29°49' W 092°02'2 4.6
2017-Dec-24 02:30N 29°50' W 091°59'55 4.0
2017-Dec-23 12:36N 29°36' W 090°58'2 4.8
2017-Dec-23 12:12N 29°34' W 090°57'1 5.1
2017-Dec-23 11:56N 29°34' W 090°55'2 5.1
2017-Dec-23 11:30N 29°32' W 090°53'2 4.9
2017-Dec-23 10:59N 29°32' W 090°50'2 4.8
2017-Dec-23 10:30N 29°32' W 090°47'2 4.0
2017-Dec-23 10:00N 29°33' W 090°45'2 4.3
2017-Dec-23 09:31N 29°34' W 090°43'2 4.3
2017-Dec-23 09:01N 29°36' W 090°43'1 2.9
2017-Dec-23 08:31N 29°36' W 090°41'2 4.6
2017-Dec-23 08:01N 29°35' W 090°39'2 4.3
2017-Dec-23 07:31N 29°35' W 090°36'2 4.4
2017-Dec-23 06:59N 29°34' W 090°34'2 4.4
2017-Dec-23 06:31N 29°34' W 090°31'  

Dump ship's entire track history